Weather at Federal Border Guard No. 14 Helipad

Public forecast

Using degrees Celsius for public forecast. Weather courtesy of forecast.io.

Closest aviation weather report (METAR) to Federal Border Guard No. 14 Helipad

Closest report is Hatay Airport, 14.5 nm (26.9 km) WSW.

2024/05/26 00:25 (retrieved 8 minutes ago)

LTDA 260025Z 23008KT 9999 FEW027CB BKN030 20/15 Q1008 RETS NOSIG

Closest aviation forecast (TAF) to Federal Border Guard No. 14 Helipad

Forecast is more than 12 hours old.

Closest forecast is Aleppo International Airport, 38.4 nm (71.1 km) ESE.

2024/05/25 06:00 (retrieved 19 hours ago)

TAF OSAP 250400Z 2506/2606 35012KT 9999 SCT030 BKN100 TEMPO 2510/2513 33018KT 4000 -RA SCT025 BKN080